Time;durP1;ratioP1;P1;durP2;ratioP2;P2;SDS_P1;SDS_P2;PMS_P1;PMS_P2;Temp;Humidity;BMP_temperature;BMP_pressure;BME280_temperature;BME280_humidity;BME280_pressure;Samples;Min_cycle;Max_cycle;Signal;HPM_P1;HPM_P2
2022/02/04 00:20:29;;;;;;;33.97;15.70;;;;;;;0.69;100.00;99966.91;30733959;28;20525;-74
2022/02/04 00:51:00;;;;;;;30.27;12.23;;;;;;;0.27;100.00;99966.84;30741684;28;20065;-74
2022/02/04 01:36:44;;;;;;;31.67;13.37;;;;;;;-0.10;100.00;99995.84;30731011;28;20158;-74
2022/02/04 01:51:46;;;;;;;28.27;13.03;;;;;;;-0.22;100.00;99998.63;30722191;28;20051;-77
2022/02/04 02:07:02;;;;;;;34.90;15.20;;;;;;;-0.42;100.00;100017.25;30710341;28;20044;-76
2022/02/04 03:07:53;;;;;;;23.13;11.10;;;;;;;-0.71;100.00;100031.03;30718523;28;20070;-75
2022/02/04 03:22:57;;;;;;;29.13;11.40;;;;;;;-0.82;100.00;100030.00;30751397;28;20063;-75
2022/02/04 03:37:59;;;;;;;27.80;11.93;;;;;;;-0.80;100.00;100027.75;30710739;28;20416;-74
2022/02/04 03:53:03;;;;;;;31.47;13.00;;;;;;;-0.82;100.00;100030.00;30746550;28;20058;-76
2022/02/04 04:08:05;;;;;;;24.17;11.30;;;;;;;-0.92;100.00;100036.59;30720903;28;20047;-76
2022/02/04 04:23:07;;;;;;;25.50;11.80;;;;;;;-0.94;100.00;100038.06;30690214;28;20135;-76
2022/02/04 05:39:34;;;;;;;27.37;11.07;;;;;;;-1.27;100.00;100089.72;30715913;28;20082;-75
2022/02/04 06:24:51;;;;;;;22.80;11.07;;;;;;;-1.23;100.00;100122.56;30751405;28;20484;-81
2022/02/04 06:39:53;;;;;;;19.73;10.27;;;;;;;-1.23;100.00;100119.91;30733937;28;20498;-82
2022/02/04 06:54:55;;;;;;;20.87;9.87;;;;;;;-1.19;100.00;100115.47;30735687;28;20052;-82
2022/02/04 07:10:05;;;;;;;19.93;9.17;;;;;;;-1.31;100.00;100120.03;30740187;28;20142;-82
2022/02/04 07:25:07;;;;;;;18.80;7.20;;;;;;;-1.45;100.00;100118.53;30693074;29;20525;-81
2022/02/04 07:55:31;;;;;;;19.47;8.47;;;;;;;-1.29;100.00;100133.78;30718761;28;20058;-80
2022/02/04 08:56:20;;;;;;;17.80;8.50;;;;;;;-1.26;100.00;100123.25;30717632;28;20561;-82
2022/02/04 09:11:38;;;;;;;19.57;8.97;;;;;;;-1.32;99.49;100113.94;30737970;28;20155;-81
2022/02/04 09:26:41;;;;;;;19.13;9.20;;;;;;;-1.31;99.52;100114.72;30670762;28;20047;-81
2022/02/04 09:41:43;;;;;;;18.20;7.23;;;;;;;-1.42;100.00;100103.78;30738480;28;20058;-81
2022/02/04 10:04:33;;;;;;;19.07;9.03;;;;;;;-1.34;100.00;100100.19;30783257;28;20050;-82
2022/02/04 10:27:40;;;;;;;17.50;7.80;;;;;;;-1.20;99.34;100094.47;30766535;28;20074;-82
2022/02/04 11:59:44;;;;;;;24.40;11.27;;;;;;;-1.43;96.95;100092.34;30784305;28;20465;-80
2022/02/04 12:14:46;;;;;;;30.27;12.93;;;;;;;-1.21;96.02;100093.72;30714173;28;20085;-82
2022/02/04 12:29:48;;;;;;;26.20;11.73;;;;;;;-1.05;96.30;100107.06;30677915;28;20047;-81
2022/02/04 12:44:52;;;;;;;28.60;11.70;;;;;;;-1.11;95.38;100119.84;30796203;28;20059;-83
2022/02/04 13:15:16;;;;;;;18.20;10.37;;;;;;;-1.37;95.85;100128.25;30695341;28;20055;-82
2022/02/04 13:30:26;;;;;;;19.13;9.00;;;;;;;-1.48;96.59;100148.50;30748819;28;20505;-81
2022/02/04 13:45:44;;;;;;;18.03;8.80;;;;;;;-1.51;97.15;100156.38;30723920;28;20162;-80
2022/02/04 14:01:07;;;;;;;16.17;7.27;;;;;;;-1.64;96.27;100160.91;30726477;28;20146;-81
2022/02/04 14:16:11;;;;;;;16.23;7.90;;;;;;;-1.76;95.29;100174.25;30731652;28;20126;-81
2022/02/04 14:31:29;;;;;;;11.20;7.13;;;;;;;-1.82;95.44;100199.53;30704209;29;20093;-81
2022/02/04 15:01:58;;;;;;;18.80;9.47;;;;;;;-1.88;95.38;100225.56;30730462;28;20162;-81
2022/02/04 15:17:00;;;;;;;19.10;9.30;;;;;;;-1.90;95.05;100233.13;30715600;28;20066;-80
2022/02/04 15:32:03;;;;;;;16.80;8.13;;;;;;;-1.91;94.49;100260.06;30725065;28;20142;-83
2022/02/04 15:47:22;;;;;;;18.03;8.33;;;;;;;-2.08;93.99;100282.28;30673207;29;20056;-80
2022/02/04 16:02:39;;;;;;;27.43;9.83;;;;;;;-2.03;94.27;100302.59;30776537;28;20147;-81
2022/02/04 16:17:52;;;;;;;18.80;8.87;;;;;;;-2.14;91.75;100331.50;30779731;28;20488;-80
2022/02/04 16:32:54;;;;;;;19.90;7.70;;;;;;;-2.12;92.26;100329.28;30732361;28;20056;-79
2022/02/04 16:47:57;;;;;;;15.37;7.80;;;;;;;-2.23;93.15;100347.53;30670151;29;20059;-80
2022/02/04 17:03:07;;;;;;;13.60;7.07;;;;;;;-2.31;93.49;100355.56;30703458;29;20138;-81
2022/02/04 17:18:11;;;;;;;13.93;8.23;;;;;;;-2.33;92.68;100368.41;30750871;28;20090;-81
2022/02/04 17:33:13;;;;;;;15.03;8.53;;;;;;;-2.24;92.01;100371.78;30705910;28;20139;-83
2022/02/04 17:48:25;;;;;;;16.13;7.77;;;;;;;-2.27;92.17;100383.06;30744526;29;20058;-84
2022/02/04 18:18:55;;;;;;;16.27;7.30;;;;;;;-2.32;91.65;100396.56;30728758;28;20056;-85
2022/02/04 18:34:05;;;;;;;13.77;7.23;;;;;;;-2.35;91.85;100402.53;30750307;28;20044;-85
2022/02/04 18:49:25;;;;;;;16.43;8.83;;;;;;;-2.41;91.50;100396.66;30780997;28;20498;-82
2022/02/04 19:04:44;;;;;;;10.83;6.47;;;;;;;-2.33;91.38;100405.63;30776527;28;20499;-82
2022/02/04 19:20:09;;;;;;;10.77;6.80;;;;;;;-2.34;91.60;100398.75;30760502;28;20055;-81
2022/02/04 19:35:11;;;;;;;13.97;6.80;;;;;;;-2.23;91.65;100405.25;30746962;28;20115;-83
2022/02/04 20:35:56;;;;;;;11.93;6.03;;;;;;;-2.50;91.84;100391.38;30736950;28;20138;-82
2022/02/04 20:50:58;;;;;;;9.57;5.93;;;;;;;-2.55;91.34;100393.44;30738634;28;20058;-85
2022/02/04 21:06:04;;;;;;;14.37;6.87;;;;;;;-2.68;90.60;100383.84;30705517;28;20513;-82
2022/02/04 21:21:07;;;;;;;11.03;6.83;;;;;;;-2.58;90.81;100389.53;30736046;28;20051;-82
2022/02/04 21:51:29;;;;;;;11.93;7.23;;;;;;;-2.50;91.61;100402.00;30703711;28;20138;-81
2022/02/04 22:06:32;;;;;;;16.80;7.13;;;;;;;-2.43;94.12;100399.63;30738285;28;20458;-82
2022/02/04 22:52:18;;;;;;;15.67;7.53;;;;;;;-2.45;93.73;100409.03;30709127;28;20155;-81
2022/02/04 23:07:22;;;;;;;12.03;7.03;;;;;;;-2.32;94.23;100429.25;30742167;28;20138;-80
2022/02/04 23:22:31;;;;;;;14.13;8.23;;;;;;;-2.30;94.79;100429.72;30733497;28;20429;-81
2022/02/04 23:52:43;;;;;;;13.17;7.67;;;;;;;-2.33;93.51;100438.31;30715037;28;20561;-80
